Terminal Aerodrome Forecast
Issued by NWS Portland, ME

Home | Current Version | Previous Version | Text Only | Print | Product List | Glossary On
Versions: 1 2 3 4 5 6 7 8 9 10 11 12 13 14 15 16
568
FTUS41 KGYX 271120
TAFPWM
TAF
KPWM 271120Z 2712/2812 19006KT P6SM FEW040 BKN100 PROB30 2722/2803
      2SM -TSRA BKN030CB
     FM280600 28004KT P6SM FEW100 SCT250=

USA.gov is the U.S. government's official web portal to all federal, state and local government web resources and services.